De Queen, AR

6:12 PM CST en Noviembre 25, 2014 (GMT -0600)
Jones Ridge | Change Station
CLOSE
Current Station
Estación meteorológica personal
Location: De Queen, AR
Altura: 502 ft
Estaciones meteorológicas cercanas

Alt 502 ft 34.07 °N, 94.32 °W | Updated 1 second ago

Despejado
Despejado
45.5 ° F
Sensación térmica 46 ° F
N
0.0
Viento Variable Viento desde NO
Gusts 0.0 mph

Hoy
Alta -- | Baja -- ° F
--% Posibilidad de precipitaciones
Ayer
Alta -- | Baja -- ° F
Precip. -- pul
6:59 AM 5:09 PM
Creciente, 15% visible
Presión 30.15 pul
Visibilidad 10.0 Millas
Nubes Despejado
Vientos helados 46 ° F
Punto de rocío 33 ° F
Humedad 61%
Precipitaciones 0.00 pul
Espesor de la nieve No disponible.
UV 0 de una escala de 12
Polen 2.80 de una escala de 12
Calidad del aire No disponible.
Flu Activity No disponible.
METAR KDEQ 252353Z AUTO 00000KT 10SM CLR 07/00 A3015 RMK AO2 SLP209 T00670000 10150 20067 53000

More Conditions Fewer Conditions

Presión 30.15 pul
Visibilidad 10.0 Millas
Nubes Despejado
Vientos helados 46 ° F
Punto de rocío 33 ° F
Humedad 61%
Precipitaciones 0.00 pul
Espesor de la nieve No disponible.
UV 0 de una escala de 12
Polen 2.80 de una escala de 12
Calidad del aire No disponible.
Flu Activity No disponible.
METAR KDEQ 252353Z AUTO 00000KT 10SM CLR 07/00 A3015 RMK AO2 SLP209 T00670000 10150 20067 53000

More Conditions Fewer Conditions

10-Day Weather Forecast

Almanac

Astronomía

Nov. 25, 2014 Salida Puesta
Hora real
Crepúsculo civil
Crepúsculo náutico
Crepúsculo astronómico
Luna
Horas de luz
Horas de luz
Tomorrow will be .
, % of the Moon is Illuminated

Extremos de hoy

Máximos del estado Bajos del estado

Community

WunderPhotos

Upload Photos

1,773,625 ¡fotos cargadas!

WunderBlogs® & News

Nearby

Calidad del aire

  Calidad del aire Índice AQ Contaminante
Not available.

Grosos de nieve

Estación Profundido Altura

Actividad de terremotos

Ciudad Distance Mag. Tiempo y dato
Magnitud mínima muestra es 2,5.

Temperaturas de aguas costeras

Lugar Temperatura

Estaciones meteorológicas cercanas